Time;durP1;ratioP1;P1;durP2;ratioP2;P2;SDS_P1;SDS_P2;PMS_P1;PMS_P2;Temp;Humidity;BMP_temperature;BMP_pressure;BME280_temperature;BME280_humidity;BME280_pressure;Samples;Min_cycle;Max_cycle;Signal;HPM_P1;HPM_P2
2022/09/18 00:01:27;;;;;;;2.43;1.47;;;;;;;;;;5014429;28;20409;-65
2022/09/18 00:03:53;;;;;;;1.77;1.57;;;;;;;;;;5015554;28;20494;-65
2022/09/18 00:06:21;;;;;;;3.50;1.50;;;;;;;;;;5015597;28;20405;-64
2022/09/18 00:08:51;;;;;;;2.33;1.70;;;;;;;;;;5015535;28;20431;-66
2022/09/18 00:11:16;;;;;;;1.87;1.70;;;;;;;;;;5014226;28;20775;-65
2022/09/18 00:13:42;;;;;;;2.10;1.80;;;;;;;;;;5014992;28;20469;-64
2022/09/18 00:16:09;;;;;;;1.83;1.50;;;;;;;;;;5015390;28;20562;-65
2022/09/18 00:18:35;;;;;;;2.17;1.50;;;;;;;;;;5015262;28;20417;-65
2022/09/18 00:21:03;;;;;;;2.67;1.60;;;;;;;;;;5015318;28;20796;-65
2022/09/18 00:23:29;;;;;;;6.50;1.67;;;;;;;;;;5013931;28;20427;-65
2022/09/18 00:25:54;;;;;;;2.43;1.80;;;;;;;;;;5015238;28;20496;-64
2022/09/18 00:28:20;;;;;;;1.30;1.20;;;;;;;;;;5015181;28;20888;-65
2022/09/18 00:30:46;;;;;;;9.00;1.90;;;;;;;;;;5015190;28;20967;-66
2022/09/18 00:33:12;;;;;;;2.43;1.43;;;;;;;;;;5015071;28;20939;-66
2022/09/18 00:35:42;;;;;;;2.57;2.03;;;;;;;;;;5014998;28;20516;-64
2022/09/18 00:38:08;;;;;;;3.70;1.90;;;;;;;;;;5014926;28;20448;-64
2022/09/18 00:40:34;;;;;;;2.73;1.60;;;;;;;;;;5014939;28;20405;-65
2022/09/18 00:43:20;;;;;;;3.20;1.63;;;;;;;;;;5014842;28;20431;-65
2022/09/18 00:45:49;;;;;;;6.03;1.70;;;;;;;;;;5014912;28;20496;-65
2022/09/18 00:48:15;;;;;;;4.43;1.80;;;;;;;;;;5013466;28;20947;-64
2022/09/18 00:50:41;;;;;;;4.33;1.87;;;;;;;;;;5014818;28;20425;-66
2022/09/18 00:53:07;;;;;;;3.57;1.93;;;;;;;;;;5013187;28;20483;-64
2022/09/18 00:55:38;;;;;;;2.13;2.03;;;;;;;;;;5014980;28;20479;-66
2022/09/18 00:58:05;;;;;;;3.23;1.90;;;;;;;;;;5013431;28;20908;-66
2022/09/18 01:00:31;;;;;;;3.07;1.70;;;;;;;;;;5014694;28;20467;-65
2022/09/18 01:02:58;;;;;;;5.03;1.70;;;;;;;;;;5014560;28;20419;-65
2022/09/18 01:05:42;;;;;;;3.67;1.70;;;;;;;;;;5014556;28;20410;-65
2022/09/18 01:08:11;;;;;;;1.70;1.70;;;;;;;;;;5014472;28;20509;-65
2022/09/18 01:10:45;;;;;;;2.50;1.63;;;;;;;;;;5014342;28;20440;-66
2022/09/18 01:13:11;;;;;;;6.80;1.63;;;;;;;;;;5014312;28;20405;-65
2022/09/18 01:15:51;;;;;;;2.50;1.70;;;;;;;;;;5014318;28;20513;-66
2022/09/18 01:18:22;;;;;;;2.87;1.40;;;;;;;;;;5014324;28;20467;-65
2022/09/18 01:20:51;;;;;;;2.50;1.80;;;;;;;;;;5014209;28;20419;-66
2022/09/18 01:23:33;;;;;;;4.13;1.60;;;;;;;;;;5014124;28;20416;-66
2022/09/18 01:26:17;;;;;;;4.83;1.80;;;;;;;;;;5013703;28;20853;-66
2022/09/18 01:29:04;;;;;;;1.80;1.60;;;;;;;;;;5014049;28;20908;-65
2022/09/18 01:31:38;;;;;;;4.87;1.57;;;;;;;;;;5013709;28;20916;-65
2022/09/18 01:34:27;;;;;;;9.33;1.87;;;;;;;;;;5012659;28;20468;-65
2022/09/18 01:36:55;;;;;;;3.23;1.70;;;;;;;;;;4952054;28;20417;-65
2022/09/18 01:39:24;;;;;;;1.60;1.50;;;;;;;;;;5012717;28;20429;-64
2022/09/18 01:41:51;;;;;;;1.63;1.53;;;;;;;;;;5012635;28;20427;-66
2022/09/18 01:44:21;;;;;;;4.40;2.50;;;;;;;;;;5013931;28;20413;-66
2022/09/18 01:46:48;;;;;;;1.90;1.37;;;;;;;;;;5013882;28;20420;-65
2022/09/18 01:49:16;;;;;;;3.63;1.57;;;;;;;;;;5013763;28;20504;-65
2022/09/18 01:51:45;;;;;;;2.10;1.60;;;;;;;;;;5013691;28;20471;-64
2022/09/18 01:54:14;;;;;;;1.57;1.47;;;;;;;;;;5013704;28;20460;-65
2022/09/18 01:56:46;;;;;;;2.90;1.63;;;;;;;;;;5013719;28;20628;-64
2022/09/18 01:59:14;;;;;;;4.87;1.57;;;;;;;;;;5013704;28;20389;-64
2022/09/18 02:01:42;;;;;;;5.07;2.00;;;;;;;;;;5013692;28;20888;-64
2022/09/18 02:04:11;;;;;;;2.87;1.70;;;;;;;;;;5013605;28;20400;-64
2022/09/18 02:06:36;;;;;;;5.80;1.63;;;;;;;;;;5013591;28;20412;-66
2022/09/18 02:09:03;;;;;;;12.10;2.17;;;;;;;;;;5013672;28;20488;-65
2022/09/18 02:11:30;;;;;;;11.03;1.87;;;;;;;;;;5013635;28;20432;-65
2022/09/18 02:13:56;;;;;;;8.03;1.97;;;;;;;;;;5012190;28;20476;-66
2022/09/18 02:16:28;;;;;;;1.70;1.60;;;;;;;;;;5013572;28;20401;-65
2022/09/18 02:18:56;;;;;;;2.70;1.40;;;;;;;;;;5013452;28;20431;-65
2022/09/18 02:21:26;;;;;;;2.80;1.60;;;;;;;;;;5013507;28;20415;-66
2022/09/18 02:23:53;;;;;;;3.97;1.60;;;;;;;;;;5012188;28;20418;-66
2022/09/18 02:26:19;;;;;;;3.33;1.60;;;;;;;;;;5013482;28;20421;-66
2022/09/18 02:28:46;;;;;;;3.33;1.50;;;;;;;;;;5012164;28;20750;-65
2022/09/18 02:31:12;;;;;;;3.43;1.70;;;;;;;;;;5013484;28;20420;-65
2022/09/18 02:33:38;;;;;;;3.60;1.40;;;;;;;;;;5013227;28;20463;-64
2022/09/18 02:36:22;;;;;;;1.77;1.37;;;;;;;;;;5015057;28;20405;-65
2022/09/18 02:38:53;;;;;;;3.47;1.70;;;;;;;;;;5015970;28;20466;-64
2022/09/18 02:41:29;;;;;;;5.30;1.87;;;;;;;;;;5017467;28;20571;-65
2022/09/18 02:44:00;;;;;;;2.60;1.63;;;;;;;;;;5017113;28;20487;-65
2022/09/18 02:46:32;;;;;;;7.57;1.70;;;;;;;;;;5017078;28;20409;-66
2022/09/18 02:49:21;;;;;;;3.23;1.70;;;;;;;;;;5015630;28;21035;-64
2022/09/18 02:52:01;;;;;;;4.20;1.17;;;;;;;;;;5016899;28;20479;-66
2022/09/18 02:54:31;;;;;;;7.77;1.90;;;;;;;;;;5016928;28;20474;-67
2022/09/18 02:57:04;;;;;;;2.80;1.30;;;;;;;;;;5016982;28;20812;-66
2022/09/18 02:59:30;;;;;;;6.03;1.87;;;;;;;;;;5016836;28;20891;-66
2022/09/18 03:01:57;;;;;;;5.00;1.53;;;;;;;;;;5016871;28;20500;-66
2022/09/18 03:04:24;;;;;;;3.17;1.50;;;;;;;;;;5016706;28;20416;-66
2022/09/18 03:06:50;;;;;;;3.30;1.60;;;;;;;;;;5016695;28;20504;-66
2022/09/18 03:09:16;;;;;;;3.73;1.33;;;;;;;;;;5016710;28;20445;-66
2022/09/18 03:11:43;;;;;;;2.53;1.43;;;;;;;;;;5015398;28;20428;-66
2022/09/18 03:14:11;;;;;;;6.10;1.90;;;;;;;;;;5016733;28;20476;-66
2022/09/18 03:16:37;;;;;;;3.10;1.33;;;;;;;;;;5016505;28;20488;-66
2022/09/18 03:19:03;;;;;;;3.43;1.43;;;;;;;;;;5016569;28;20507;-66
2022/09/18 03:21:29;;;;;;;2.30;1.40;;;;;;;;;;5016503;28;20492;-66
2022/09/18 03:23:55;;;;;;;5.57;1.40;;;;;;;;;;5016425;28;20459;-66
2022/09/18 03:26:21;;;;;;;5.40;1.70;;;;;;;;;;5015171;28;20424;-66
2022/09/18 03:28:48;;;;;;;5.30;1.60;;;;;;;;;;5016318;28;20504;-67
2022/09/18 03:31:14;;;;;;;5.73;2.00;;;;;;;;;;5016226;28;20424;-66
2022/09/18 03:33:40;;;;;;;4.00;2.03;;;;;;;;;;5016155;28;20501;-64
2022/09/18 03:36:07;;;;;;;1.77;1.23;;;;;;;;;;5016275;28;20762;-66
2022/09/18 03:38:33;;;;;;;3.70;2.27;;;;;;;;;;5016114;28;20428;-66
2022/09/18 03:40:59;;;;;;;2.83;1.43;;;;;;;;;;5014751;28;20813;-65
2022/09/18 03:43:25;;;;;;;3.20;1.40;;;;;;;;;;5016015;28;20416;-66
2022/09/18 03:45:51;;;;;;;2.67;1.70;;;;;;;;;;5016021;28;20401;-66
2022/09/18 03:48:19;;;;;;;8.43;2.10;;;;;;;;;;5015254;28;20421;-65
2022/09/18 03:50:45;;;;;;;4.37;1.90;;;;;;;;;;5015952;28;20405;-66
2022/09/18 03:53:10;;;;;;;5.00;1.57;;;;;;;;;;5015672;28;20468;-65
2022/09/18 03:55:36;;;;;;;3.93;2.33;;;;;;;;;;5015825;28;20448;-66
2022/09/18 03:58:02;;;;;;;2.07;1.77;;;;;;;;;;5015766;28;20409;-66
2022/09/18 04:00:28;;;;;;;5.90;1.60;;;;;;;;;;5014396;28;20796;-66
2022/09/18 04:02:54;;;;;;;5.80;1.63;;;;;;;;;;5015783;28;20417;-66
2022/09/18 04:05:20;;;;;;;9.03;1.90;;;;;;;;;;5015585;28;20409;-66
2022/09/18 04:07:46;;;;;;;2.20;1.60;;;;;;;;;;5014318;28;20468;-66
2022/09/18 04:10:13;;;;;;;2.60;1.60;;;;;;;;;;5015557;28;20404;-66
2022/09/18 04:12:38;;;;;;;3.63;1.43;;;;;;;;;;5015443;28;20405;-66
2022/09/18 04:15:05;;;;;;;2.53;1.77;;;;;;;;;;5015365;28;20545;-66
2022/09/18 04:17:31;;;;;;;4.87;1.70;;;;;;;;;;5015349;28;20415;-66
2022/09/18 04:19:57;;;;;;;6.77;1.60;;;;;;;;;;5015380;28;20485;-66
2022/09/18 04:22:23;;;;;;;2.07;1.57;;;;;;;;;;5015352;28;20503;-66
2022/09/18 04:24:49;;;;;;;2.33;1.57;;;;;;;;;;5015245;28;20768;-65
2022/09/18 04:27:15;;;;;;;10.13;1.70;;;;;;;;;;5015248;28;20407;-66
2022/09/18 04:29:41;;;;;;;2.83;1.47;;;;;;;;;;5015178;28;20397;-66
2022/09/18 04:32:08;;;;;;;4.20;1.97;;;;;;;;;;5015016;28;20419;-66
2022/09/18 04:34:37;;;;;;;6.63;1.77;;;;;;;;;;5014988;28;20475;-65
2022/09/18 04:37:03;;;;;;;7.93;2.23;;;;;;;;;;5015388;28;20393;-66
2022/09/18 04:39:31;;;;;;;8.90;1.80;;;;;;;;;;5014946;28;20770;-66
2022/09/18 04:41:58;;;;;;;5.30;1.43;;;;;;;;;;5014977;28;20397;-66
2022/09/18 04:44:24;;;;;;;5.83;2.07;;;;;;;;;;5014944;28;20768;-65
2022/09/18 04:46:50;;;;;;;4.27;2.10;;;;;;;;;;5014788;28;20397;-66
2022/09/18 04:49:17;;;;;;;3.47;2.17;;;;;;;;;;5014831;28;20923;-66
2022/09/18 04:51:43;;;;;;;3.03;1.80;;;;;;;;;;5014655;28;20459;-66
2022/09/18 04:54:09;;;;;;;6.13;2.43;;;;;;;;;;5013376;28;20534;-67
2022/09/18 04:56:35;;;;;;;8.80;1.73;;;;;;;;;;5014694;28;20498;-66
2022/09/18 04:59:01;;;;;;;4.90;2.13;;;;;;;;;;5013707;28;20428;-65
2022/09/18 05:01:27;;;;;;;5.07;2.40;;;;;;;;;;5014545;28;20405;-66
2022/09/18 05:03:53;;;;;;;2.77;2.20;;;;;;;;;;5014648;28;20432;-66
2022/09/18 05:06:19;;;;;;;3.40;1.90;;;;;;;;;;5014651;28;20876;-66
2022/09/18 05:08:45;;;;;;;3.73;1.80;;;;;;;;;;5014438;28;20415;-66
2022/09/18 05:11:11;;;;;;;2.27;1.60;;;;;;;;;;5014422;28;20488;-66
2022/09/18 05:13:39;;;;;;;2.83;1.67;;;;;;;;;;5014333;28;20495;-66
2022/09/18 05:16:05;;;;;;;3.10;1.80;;;;;;;;;;5014359;28;20393;-66
2022/09/18 05:18:31;;;;;;;3.90;1.73;;;;;;;;;;5014087;28;20424;-66
2022/09/18 05:21:01;;;;;;;5.20;2.07;;;;;;;;;;5014383;28;20776;-66
2022/09/18 05:23:27;;;;;;;4.33;1.50;;;;;;;;;;5013210;28;20874;-64
2022/09/18 05:25:53;;;;;;;2.87;1.87;;;;;;;;;;5012957;28;20464;-64
2022/09/18 05:28:18;;;;;;;5.23;1.30;;;;;;;;;;5012920;28;20908;-64
2022/09/18 05:30:45;;;;;;;9.60;2.27;;;;;;;;;;5014108;28;20815;-64
2022/09/18 05:33:11;;;;;;;1.47;1.40;;;;;;;;;;5012748;28;20782;-64
2022/09/18 05:35:38;;;;;;;1.77;1.67;;;;;;;;;;5014048;28;20463;-65
2022/09/18 05:38:04;;;;;;;2.63;1.60;;;;;;;;;;5014332;28;20827;-64
2022/09/18 05:40:35;;;;;;;3.70;1.90;;;;;;;;;;5012554;28;20425;-66
2022/09/18 05:43:04;;;;;;;3.23;1.40;;;;;;;;;;5013908;28;20405;-66
2022/09/18 05:45:30;;;;;;;3.53;1.80;;;;;;;;;;5013929;28;20405;-67
2022/09/18 05:47:57;;;;;;;1.37;1.27;;;;;;;;;;5013823;28;20421;-66
2022/09/18 05:50:24;;;;;;;1.50;1.50;;;;;;;;;;5014103;28;20424;-66
2022/09/18 05:53:03;;;;;;;1.70;1.60;;;;;;;;;;5013654;28;20926;-66
2022/09/18 05:55:30;;;;;;;2.70;1.90;;;;;;;;;;5013724;28;20476;-68
2022/09/18 05:57:56;;;;;;;4.37;1.80;;;;;;;;;;5013730;28;20405;-69
2022/09/18 06:00:23;;;;;;;6.33;1.23;;;;;;;;;;5013706;28;20451;-65
2022/09/18 06:02:52;;;;;;;7.13;1.80;;;;;;;;;;5013586;28;20443;-67
2022/09/18 06:05:18;;;;;;;2.90;1.80;;;;;;;;;;5013579;28;20471;-66
2022/09/18 06:07:44;;;;;;;1.77;1.50;;;;;;;;;;5013503;28;20417;-65
2022/09/18 06:10:10;;;;;;;3.50;1.93;;;;;;;;;;5013728;28;20980;-66
2022/09/18 06:12:36;;;;;;;3.37;1.50;;;;;;;;;;5017692;28;20427;-66
2022/09/18 06:15:02;;;;;;;1.90;1.53;;;;;;;;;;5017569;28;20476;-66
2022/09/18 06:17:28;;;;;;;1.90;1.60;;;;;;;;;;5017559;28;20503;-65
2022/09/18 06:19:54;;;;;;;3.93;1.60;;;;;;;;;;5017546;28;20401;-66
2022/09/18 06:22:20;;;;;;;4.00;1.33;;;;;;;;;;5017607;28;20397;-66
2022/09/18 06:24:46;;;;;;;2.00;1.63;;;;;;;;;;5017556;28;20486;-65
2022/09/18 06:27:12;;;;;;;2.10;1.90;;;;;;;;;;5017467;28;20400;-65
2022/09/18 06:29:38;;;;;;;6.03;1.53;;;;;;;;;;5017383;28;20412;-65
2022/09/18 06:32:04;;;;;;;8.60;2.00;;;;;;;;;;5017346;28;20401;-66
2022/09/18 06:34:30;;;;;;;1.67;1.37;;;;;;;;;;5017195;28;20478;-65
2022/09/18 06:36:56;;;;;;;2.63;1.60;;;;;;;;;;5017214;28;20524;-66
2022/09/18 06:39:22;;;;;;;1.90;1.80;;;;;;;;;;5016010;28;20420;-65
2022/09/18 06:41:48;;;;;;;3.43;2.30;;;;;;;;;;5017103;28;20917;-67
2022/09/18 06:44:14;;;;;;;3.53;1.97;;;;;;;;;;5017121;28;20476;-65
2022/09/18 06:46:40;;;;;;;6.73;1.90;;;;;;;;;;5017105;28;20416;-65
2022/09/18 06:49:06;;;;;;;3.07;1.80;;;;;;;;;;5016996;28;20431;-66
2022/09/18 06:51:32;;;;;;;2.10;1.90;;;;;;;;;;5016924;28;20472;-66
2022/09/18 06:53:58;;;;;;;1.80;1.70;;;;;;;;;;5016890;28;20460;-66
2022/09/18 06:56:24;;;;;;;2.03;1.80;;;;;;;;;;5017310;28;20755;-64
2022/09/18 06:58:53;;;;;;;1.87;1.60;;;;;;;;;;5016888;28;20397;-66
2022/09/18 07:01:19;;;;;;;2.07;1.90;;;;;;;;;;5016907;28;20413;-65
2022/09/18 07:03:48;;;;;;;1.43;1.43;;;;;;;;;;5016810;28;20904;-66
2022/09/18 07:06:14;;;;;;;2.50;1.80;;;;;;;;;;5016821;28;20401;-67
2022/09/18 07:08:40;;;;;;;8.87;7.93;;;;;;;;;;5016749;28;20428;-67
2022/09/18 07:11:06;;;;;;;12.90;7.70;;;;;;;;;;5016631;28;20538;-68
2022/09/18 07:13:33;;;;;;;28.17;12.80;;;;;;;;;;5016558;28;20493;-66
2022/09/18 07:15:59;;;;;;;37.00;19.00;;;;;;;;;;5016538;28;20759;-65
2022/09/18 07:18:25;;;;;;;14.57;9.70;;;;;;;;;;5016427;28;20474;-67
2022/09/18 07:20:52;;;;;;;10.93;5.40;;;;;;;;;;5016828;28;20413;-65
2022/09/18 07:23:18;;;;;;;9.03;4.50;;;;;;;;;;5015419;28;20411;-65
2022/09/18 07:25:45;;;;;;;5.80;5.20;;;;;;;;;;5016331;28;20405;-65
2022/09/18 07:28:11;;;;;;;2.03;1.93;;;;;;;;;;5016365;28;20815;-65
2022/09/18 07:30:38;;;;;;;2.10;1.43;;;;;;;;;;5016305;28;20405;-67
2022/09/18 07:33:04;;;;;;;5.63;1.70;;;;;;;;;;5016263;28;20896;-64
2022/09/18 07:35:31;;;;;;;1.70;1.60;;;;;;;;;;5016142;28;20472;-64
2022/09/18 07:37:58;;;;;;;2.37;1.40;;;;;;;;;;5014922;28;20420;-64
2022/09/18 07:40:24;;;;;;;2.97;1.10;;;;;;;;;;5016117;28;20416;-65
2022/09/18 07:42:50;;;;;;;1.50;1.40;;;;;;;;;;5016019;28;20777;-65
2022/09/18 07:45:16;;;;;;;3.03;1.43;;;;;;;;;;5016129;28;20412;-67
2022/09/18 07:47:42;;;;;;;4.93;1.97;;;;;;;;;;5015943;28;20857;-67
2022/09/18 07:50:14;;;;;;;4.00;2.03;;;;;;;;;;5015896;28;20465;-67
2022/09/18 07:52:47;;;;;;;1.80;1.70;;;;;;;;;;5015726;28;20680;-67
2022/09/18 07:55:12;;;;;;;2.93;1.83;;;;;;;;;;5015781;28;20525;-68
2022/09/18 07:57:38;;;;;;;3.40;1.13;;;;;;;;;;5015804;28;20838;-67
2022/09/18 08:00:06;;;;;;;2.00;1.40;;;;;;;;;;5015732;28;20409;-67
2022/09/18 08:02:32;;;;;;;2.50;1.60;;;;;;;;;;5015666;28;20776;-68
2022/09/18 08:04:58;;;;;;;4.70;1.80;;;;;;;;;;5015619;28;20509;-66
2022/09/18 08:07:24;;;;;;;7.90;1.60;;;;;;;;;;5015591;28;20393;-66
2022/09/18 08:09:50;;;;;;;1.67;1.50;;;;;;;;;;5014359;28;20449;-67
2022/09/18 08:12:16;;;;;;;2.90;1.70;;;;;;;;;;5015532;28;20543;-67
2022/09/18 08:14:42;;;;;;;5.50;1.60;;;;;;;;;;5015395;28;20554;-65
2022/09/18 08:17:08;;;;;;;2.40;1.43;;;;;;;;;;5015332;28;20432;-67
2022/09/18 08:19:34;;;;;;;1.57;1.47;;;;;;;;;;5015318;28;20779;-67
2022/09/18 08:22:00;;;;;;;1.40;1.17;;;;;;;;;;5014039;28;20851;-68
2022/09/18 08:24:26;;;;;;;3.47;1.63;;;;;;;;;;5015336;28;20620;-69
2022/09/18 08:26:52;;;;;;;3.40;1.80;;;;;;;;;;5015239;28;20408;-67
2022/09/18 08:29:18;;;;;;;2.23;2.10;;;;;;;;;;5015185;28;20424;-66
2022/09/18 08:31:47;;;;;;;1.80;1.43;;;;;;;;;;5015224;28;20405;-68
2022/09/18 08:34:13;;;;;;;1.70;1.60;;;;;;;;;;5014738;28;20476;-67
2022/09/18 08:36:39;;;;;;;8.13;1.90;;;;;;;;;;5015040;28;20401;-66
2022/09/18 08:39:05;;;;;;;1.40;1.30;;;;;;;;;;5014903;28;20773;-65
2022/09/18 08:41:54;;;;;;;5.17;1.47;;;;;;;;;;5013674;28;20874;-67
2022/09/18 08:44:24;;;;;;;2.30;1.60;;;;;;;;;;5014963;28;20420;-66
2022/09/18 08:47:09;;;;;;;2.23;1.70;;;;;;;;;;5014811;28;20923;-66
2022/09/18 08:49:46;;;;;;;2.00;1.80;;;;;;;;;;5014798;28;20743;-67
2022/09/18 08:52:14;;;;;;;6.27;1.70;;;;;;;;;;5014589;28;20464;-66
2022/09/18 08:54:43;;;;;;;1.90;1.23;;;;;;;;;;5014630;28;20471;-68
2022/09/18 08:57:13;;;;;;;1.80;1.43;;;;;;;;;;5014681;28;20401;-65
2022/09/18 08:59:43;;;;;;;6.67;1.70;;;;;;;;;;5014577;28;20409;-66
2022/09/18 09:02:19;;;;;;;2.97;1.83;;;;;;;;;;5014550;28;20404;-67
2022/09/18 09:04:45;;;;;;;1.80;1.47;;;;;;;;;;5014828;28;20542;-66
2022/09/18 09:07:31;;;;;;;5.57;1.23;;;;;;;;;;5014457;28;20405;-66
2022/09/18 09:10:20;;;;;;;1.53;1.40;;;;;;;;;;5014466;28;20424;-66
2022/09/18 09:13:11;;;;;;;2.63;1.30;;;;;;;;;;5014322;28;20427;-65
2022/09/18 09:15:37;;;;;;;5.23;1.50;;;;;;;;;;5014252;28;20479;-66
2022/09/18 09:18:08;;;;;;;2.20;1.33;;;;;;;;;;5014147;28;20507;-66
2022/09/18 09:20:44;;;;;;;1.53;1.20;;;;;;;;;;5014250;28;20971;-68
2022/09/18 09:23:19;;;;;;;5.23;1.53;;;;;;;;;;5014265;28;20455;-68
2022/09/18 09:26:03;;;;;;;1.30;1.27;;;;;;;;;;5014295;28;20411;-65
2022/09/18 09:28:36;;;;;;;1.43;1.33;;;;;;;;;;5014145;28;20495;-68
2022/09/18 09:31:04;;;;;;;8.70;1.60;;;;;;;;;;5014089;28;20413;-66
2022/09/18 09:33:36;;;;;;;1.50;1.40;;;;;;;;;;5014002;28;20778;-67
2022/09/18 09:36:14;;;;;;;2.20;1.30;;;;;;;;;;5014027;28;20401;-66
2022/09/18 09:38:57;;;;;;;3.80;1.53;;;;;;;;;;5013894;28;20439;-67
2022/09/18 09:41:29;;;;;;;1.20;1.20;;;;;;;;;;5013922;28;20399;-67
2022/09/18 09:44:18;;;;;;;4.10;1.70;;;;;;;;;;5013890;28;20762;-66
2022/09/18 09:47:07;;;;;;;4.53;1.67;;;;;;;;;;5013269;28;20415;-66
2022/09/18 09:49:45;;;;;;;3.03;1.23;;;;;;;;;;5013664;28;20424;-67
2022/09/18 09:52:21;;;;;;;3.23;1.30;;;;;;;;;;5013547;28;20499;-66
2022/09/18 09:54:49;;;;;;;3.20;1.10;;;;;;;;;;5013689;28;20479;-66
2022/09/18 09:57:21;;;;;;;1.63;1.17;;;;;;;;;;5013694;28;20408;-66
2022/09/18 10:00:11;;;;;;;2.00;1.27;;;;;;;;;;5013736;28;20438;-67
2022/09/18 10:02:40;;;;;;;1.60;1.10;;;;;;;;;;5013833;28;20849;-66
2022/09/18 10:05:06;;;;;;;1.87;1.27;;;;;;;;;;5013543;28;20465;-68
2022/09/18 10:07:55;;;;;;;2.23;1.00;;;;;;;;;;5013557;28;20405;-67
2022/09/18 10:10:31;;;;;;;1.60;1.20;;;;;;;;;;5000739;28;20485;-67
2022/09/18 10:13:00;;;;;;;1.20;1.00;;;;;;;;;;5013471;28;20451;-67
2022/09/18 10:15:28;;;;;;;5.80;1.00;;;;;;;;;;5013500;28;20524;-68
2022/09/18 10:17:58;;;;;;;1.20;1.10;;;;;;;;;;5013508;28;20423;-71
2022/09/18 10:20:26;;;;;;;1.37;1.00;;;;;;;;;;5013497;28;20455;-69
2022/09/18 10:22:53;;;;;;;3.30;0.80;;;;;;;;;;5013509;28;20946;-69
2022/09/18 10:25:40;;;;;;;3.20;1.63;;;;;;;;;;5013607;28;20413;-69
2022/09/18 10:28:11;;;;;;;2.00;1.37;;;;;;;;;;5013501;28;20495;-71
2022/09/18 10:30:51;;;;;;;2.00;1.00;;;;;;;;;;5013453;28;20432;-71
2022/09/18 10:33:31;;;;;;;1.53;1.33;;;;;;;;;;5013369;28;20440;-69
2022/09/18 10:36:00;;;;;;;1.30;1.00;;;;;;;;;;5013423;28;20425;-70
2022/09/18 10:38:31;;;;;;;1.73;0.93;;;;;;;;;;5013372;28;21013;-68
2022/09/18 10:41:09;;;;;;;1.10;1.10;;;;;;;;;;5013395;28;20463;-68
2022/09/18 10:43:36;;;;;;;1.00;1.00;;;;;;;;;;5012381;28;20763;-68
2022/09/18 10:46:02;;;;;;;3.20;1.17;;;;;;;;;;5013189;28;20416;-68
2022/09/18 10:48:28;;;;;;;1.40;1.40;;;;;;;;;;5013209;28;20419;-69
2022/09/18 10:50:54;;;;;;;0.90;0.80;;;;;;;;;;5013267;28;20416;-68
2022/09/18 10:53:23;;;;;;;1.40;1.00;;;;;;;;;;5013031;28;20461;-69
2022/09/18 10:55:50;;;;;;;1.37;1.27;;;;;;;;;;5012218;28;20782;-69
2022/09/18 10:58:16;;;;;;;1.30;1.17;;;;;;;;;;5016452;28;20408;-70
2022/09/18 11:00:59;;;;;;;4.00;1.20;;;;;;;;;;5016890;28;20784;-71
2022/09/18 11:03:37;;;;;;;2.73;1.07;;;;;;;;;;5016810;28;20787;-70
2022/09/18 11:06:04;;;;;;;2.23;1.23;;;;;;;;;;5017071;28;20430;-70
2022/09/18 11:08:33;;;;;;;2.80;1.10;;;;;;;;;;5016603;28;20412;-72
2022/09/18 11:11:10;;;;;;;2.53;1.20;;;;;;;;;;5016552;28;20421;-72
2022/09/18 11:13:57;;;;;;;1.43;1.20;;;;;;;;;;5015292;28;20419;-74
2022/09/18 11:16:35;;;;;;;0.90;0.90;;;;;;;;;;5016494;28;20432;-71
2022/09/18 11:19:06;;;;;;;9.03;4.50;;;;;;;;;;5016513;28;20475;-68
2022/09/18 11:21:32;;;;;;;1.70;1.10;;;;;;;;;;5016473;28;20772;-70
2022/09/18 11:24:02;;;;;;;1.13;1.00;;;;;;;;;;5016573;28;20824;-68
2022/09/18 11:26:29;;;;;;;1.43;0.97;;;;;;;;;;5016432;28;20906;-70
2022/09/18 11:28:58;;;;;;;0.87;0.87;;;;;;;;;;5016301;28;20419;-70
2022/09/18 11:31:24;;;;;;;0.97;0.90;;;;;;;;;;5016351;28;20888;-70
2022/09/18 11:33:52;;;;;;;1.57;0.53;;;;;;;;;;5016072;28;20469;-70
2022/09/18 11:36:29;;;;;;;0.87;0.87;;;;;;;;;;5016202;28;20489;-70
2022/09/18 11:38:56;;;;;;;1.60;0.93;;;;;;;;;;5016223;28;20418;-69
2022/09/18 11:41:24;;;;;;;2.50;0.97;;;;;;;;;;5014799;28;20513;-67
2022/09/18 11:44:01;;;;;;;1.00;0.90;;;;;;;;;;5014791;28;20433;-67
2022/09/18 11:46:42;;;;;;;1.70;0.73;;;;;;;;;;5016056;28;20483;-69
2022/09/18 11:49:14;;;;;;;1.87;1.00;;;;;;;;;;5014670;28;20442;-68
2022/09/18 11:51:48;;;;;;;1.20;1.00;;;;;;;;;;5015726;28;20469;-68
2022/09/18 11:54:35;;;;;;;3.30;0.90;;;;;;;;;;5015882;28;20475;-66
2022/09/18 11:57:03;;;;;;;2.07;0.90;;;;;;;;;;4999274;28;20425;-69
2022/09/18 11:59:32;;;;;;;0.83;0.83;;;;;;;;;;5015765;28;20422;-68
2022/09/18 12:02:00;;;;;;;3.43;0.90;;;;;;;;;;5015686;28;20403;-66
2022/09/18 12:04:48;;;;;;;1.30;0.57;;;;;;;;;;5015668;28;20457;-67
2022/09/18 12:07:14;;;;;;;2.30;1.03;;;;;;;;;;5015615;28;20873;-69
2022/09/18 12:09:53;;;;;;;2.60;1.00;;;;;;;;;;5014948;28;20421;-68
2022/09/18 12:12:33;;;;;;;0.73;0.73;;;;;;;;;;5015361;28;20463;-68
2022/09/18 12:15:17;;;;;;;4.03;0.70;;;;;;;;;;5015393;28;20475;-66
2022/09/18 12:17:57;;;;;;;2.83;0.83;;;;;;;;;;5015404;28;20452;-71
2022/09/18 12:20:32;;;;;;;2.53;1.00;;;;;;;;;;5014161;28;20401;-69
2022/09/18 12:22:59;;;;;;;0.67;0.67;;;;;;;;;;5014086;28;20523;-69
2022/09/18 12:25:43;;;;;;;4.00;1.10;;;;;;;;;;5015230;28;20917;-70
2022/09/18 12:28:28;;;;;;;3.07;0.80;;;;;;;;;;5014015;28;20424;-70
2022/09/18 12:31:08;;;;;;;1.73;0.63;;;;;;;;;;5015150;28;20406;-69
2022/09/18 12:33:34;;;;;;;3.30;0.70;;;;;;;;;;5015053;28;20773;-70
2022/09/18 12:36:26;;;;;;;1.37;0.83;;;;;;;;;;5015129;28;20428;-71
2022/09/18 12:39:02;;;;;;;1.70;1.20;;;;;;;;;;5015028;28;20413;-71
2022/09/18 12:41:36;;;;;;;1.63;0.93;;;;;;;;;;5015073;28;20922;-71
2022/09/18 12:44:02;;;;;;;2.17;1.03;;;;;;;;;;5014982;28;20420;-70
2022/09/18 12:46:36;;;;;;;0.53;0.53;;;;;;;;;;5013695;28;20414;-68
2022/09/18 12:49:15;;;;;;;0.83;0.83;;;;;;;;;;5014842;28;20871;-68
2022/09/18 12:52:02;;;;;;;1.47;1.03;;;;;;;;;;5014691;28;20500;-72
2022/09/18 12:54:46;;;;;;;2.33;0.80;;;;;;;;;;5014738;28;20476;-71
2022/09/18 12:57:15;;;;;;;1.10;0.80;;;;;;;;;;5014763;28;20464;-71
2022/09/18 12:59:47;;;;;;;0.97;0.97;;;;;;;;;;5014709;28;20518;-69
2022/09/18 13:02:31;;;;;;;1.13;0.80;;;;;;;;;;5014648;28;20408;-71
2022/09/18 13:05:11;;;;;;;0.80;0.73;;;;;;;;;;5014665;28;20907;-70
2022/09/18 13:07:40;;;;;;;0.73;0.73;;;;;;;;;;5014459;28;20430;-68
2022/09/18 13:10:15;;;;;;;2.80;0.80;;;;;;;;;;5014354;28;20892;-72
2022/09/18 13:12:44;;;;;;;1.07;0.90;;;;;;;;;;5014464;28;20896;-71
2022/09/18 13:15:27;;;;;;;0.80;0.70;;;;;;;;;;5014338;28;20475;-71
2022/09/18 13:17:56;;;;;;;10.67;0.80;;;;;;;;;;5013064;28;20924;-70
2022/09/18 13:20:24;;;;;;;5.20;0.60;;;;;;;;;;5013513;28;20415;-71
2022/09/18 13:22:52;;;;;;;1.70;0.93;;;;;;;;;;5012949;28;20439;-71
2022/09/18 13:25:24;;;;;;;4.67;3.90;;;;;;;;;;5014193;28;20885;-71
2022/09/18 13:27:52;;;;;;;3.03;1.03;;;;;;;;;;5014150;28;20416;-71
2022/09/18 13:30:25;;;;;;;0.97;0.57;;;;;;;;;;5014125;28;20401;-71
2022/09/18 13:32:53;;;;;;;1.70;1.60;;;;;;;;;;5014019;28;20423;-71
2022/09/18 13:35:22;;;;;;;2.57;0.80;;;;;;;;;;5012689;28;20481;-71
2022/09/18 13:37:49;;;;;;;1.73;1.53;;;;;;;;;;5014098;28;20402;-71
2022/09/18 13:40:35;;;;;;;2.23;1.07;;;;;;;;;;5013925;28;20428;-70
2022/09/18 13:43:24;;;;;;;0.87;0.77;;;;;;;;;;5013987;28;20409;-72
2022/09/18 13:45:51;;;;;;;0.70;0.70;;;;;;;;;;5001276;28;20428;-71
2022/09/18 13:48:17;;;;;;;4.23;0.70;;;;;;;;;;5013887;28;20428;-71
2022/09/18 13:50:54;;;;;;;0.93;0.93;;;;;;;;;;5013894;28;20398;-69
2022/09/18 13:53:38;;;;;;;0.80;0.80;;;;;;;;;;5013678;28;20483;-72
2022/09/18 13:56:06;;;;;;;2.53;2.33;;;;;;;;;;5012600;28;20533;-71
2022/09/18 13:58:35;;;;;;;2.00;1.83;;;;;;;;;;5012417;28;20433;-70
2022/09/18 14:01:03;;;;;;;1.70;1.60;;;;;;;;;;5013681;28;20897;-70
2022/09/18 14:03:34;;;;;;;2.30;0.93;;;;;;;;;;5013644;28;20427;-71
2022/09/18 14:06:20;;;;;;;1.90;0.80;;;;;;;;;;5013668;28;20443;-71
2022/09/18 14:08:46;;;;;;;3.13;0.93;;;;;;;;;;5013573;28;20423;-71
2022/09/18 14:11:12;;;;;;;3.90;1.43;;;;;;;;;;5013524;28;20423;-72
2022/09/18 14:13:54;;;;;;;3.07;0.67;;;;;;;;;;5013534;28;20410;-67
2022/09/18 14:16:23;;;;;;;0.90;0.90;;;;;;;;;;5013780;28;20420;-70
2022/09/18 14:18:49;;;;;;;1.00;1.00;;;;;;;;;;5013552;28;20771;-68
2022/09/18 14:21:18;;;;;;;2.00;1.20;;;;;;;;;;5013559;28;20413;-69
2022/09/18 14:23:46;;;;;;;0.77;0.70;;;;;;;;;;5012278;28;20425;-66
2022/09/18 14:26:37;;;;;;;1.07;0.93;;;;;;;;;;5013881;28;20431;-70
2022/09/18 14:29:09;;;;;;;1.13;0.80;;;;;;;;;;5013547;28;20477;-67
2022/09/18 14:31:44;;;;;;;1.33;0.80;;;;;;;;;;5014190;28;20407;-68
2022/09/18 14:34:24;;;;;;;1.10;1.00;;;;;;;;;;5017129;28;20576;-70
2022/09/18 14:36:56;;;;;;;2.73;0.70;;;;;;;;;;5017299;28;20470;-67
2022/09/18 14:39:23;;;;;;;0.80;0.70;;;;;;;;;;5017409;28;20413;-68
2022/09/18 14:41:50;;;;;;;2.07;1.10;;;;;;;;;;5017202;28;20926;-66
2022/09/18 14:44:16;;;;;;;2.20;1.00;;;;;;;;;;5017219;28;20412;-66
2022/09/18 14:46:56;;;;;;;1.53;1.43;;;;;;;;;;5017116;28;20501;-72
2022/09/18 14:49:37;;;;;;;2.67;0.70;;;;;;;;;;5017059;28;20420;-68
2022/09/18 14:52:03;;;;;;;0.97;0.80;;;;;;;;;;5016947;28;20533;-68
2022/09/18 14:54:30;;;;;;;2.80;1.47;;;;;;;;;;5017035;28;20461;-69
2022/09/18 14:56:58;;;;;;;1.53;1.07;;;;;;;;;;5017042;28;20775;-69
2022/09/18 14:59:25;;;;;;;3.70;0.97;;;;;;;;;;5016968;28;20452;-69
2022/09/18 15:01:51;;;;;;;1.90;0.83;;;;;;;;;;4983113;28;20424;-72